createdAt,value
2023-09-07T00:00:06.126Z,57.91
2023-09-07T00:02:56.392Z,57.99
2023-09-07T00:05:23.494Z,57.76
2023-09-07T00:07:53.180Z,57.99
2023-09-07T00:10:30.557Z,57.89
2023-09-07T00:12:57.849Z,58.03
2023-09-07T00:15:26.867Z,58.23
2023-09-07T00:17:56.889Z,58.79
2023-09-07T00:20:24.391Z,58.52
2023-09-07T00:23:03.727Z,58.88
2023-09-07T00:25:31.166Z,58.91
2023-09-07T00:27:59.071Z,58.84
2023-09-07T00:30:26.789Z,58.82
2023-09-07T00:32:54.204Z,58.93
2023-09-07T00:35:21.688Z,59.46
2023-09-07T00:38:03.292Z,59.50
2023-09-07T00:40:33.674Z,59.42
2023-09-07T00:43:21.588Z,59.78
2023-09-07T00:45:49.072Z,59.72
2023-09-07T00:48:20.998Z,59.74
2023-09-07T00:50:48.380Z,59.76
2023-09-07T00:53:39.371Z,60.10
2023-09-07T00:56:08.006Z,59.67
2023-09-07T00:58:35.388Z,59.48
2023-09-07T01:01:03.093Z,59.25
2023-09-07T01:03:30.597Z,59.00
2023-09-07T01:06:09.451Z,59.34
2023-09-07T01:08:43.563Z,58.95
2023-09-07T01:11:18.174Z,59.01
2023-09-07T01:13:45.853Z,59.28
2023-09-07T01:16:13.686Z,59.46
2023-09-07T01:18:42.794Z,59.53
2023-09-07T01:21:12.024Z,59.90
2023-09-07T01:23:42.844Z,60.18
2023-09-07T01:26:12.865Z,60.18
2023-09-07T01:28:40.536Z,60.62
2023-09-07T01:31:07.796Z,60.63
2023-09-07T01:33:35.231Z,61.15
2023-09-07T01:36:03.325Z,61.38
2023-09-07T01:38:30.552Z,61.60
2023-09-07T01:40:58.545Z,61.65
2023-09-07T01:43:25.610Z,61.71
2023-09-07T01:45:52.999Z,61.79
2023-09-07T01:48:20.404Z,62.15
2023-09-07T01:50:52.253Z,62.35
2023-09-07T01:53:20.099Z,62.16
2023-09-07T01:56:02.251Z,62.88
2023-09-07T01:58:30.124Z,63.47
2023-09-07T02:00:58.567Z,63.47
2023-09-07T02:03:26.766Z,63.96
2023-09-07T02:05:54.554Z,63.88
2023-09-07T02:08:21.722Z,64.20
2023-09-07T02:11:09.067Z,64.45
2023-09-07T02:13:42.033Z,64.41
2023-09-07T02:16:09.315Z,64.53
2023-09-07T02:18:46.546Z,64.69
2023-09-07T02:21:13.950Z,64.83
2023-09-07T02:23:41.610Z,64.41
2023-09-07T02:26:11.666Z,64.46
2023-09-07T02:28:39.261Z,64.44
2023-09-07T02:31:06.990Z,64.70
2023-09-07T02:33:34.991Z,64.66
2023-09-07T02:36:02.554Z,64.59
2023-09-07T02:38:29.784Z,64.83
2023-09-07T02:40:58.002Z,64.89
2023-09-07T02:43:28.248Z,65.03
2023-09-07T02:46:06.766Z,65.16
2023-09-07T02:48:37.577Z,65.36
2023-09-07T02:51:18.889Z,65.52
2023-09-07T02:53:48.220Z,65.86
2023-09-07T02:56:15.742Z,66.20
2023-09-07T02:58:42.843Z,66.23
2023-09-07T03:01:09.983Z,66.46
2023-09-07T03:03:46.998Z,66.81
2023-09-07T03:06:21.847Z,67.20
2023-09-07T03:08:48.684Z,67.18
2023-09-07T03:11:15.576Z,67.35
2023-09-07T03:13:43.756Z,67.56
2023-09-07T03:16:11.124Z,67.81
2023-09-07T03:18:38.390Z,67.80
2023-09-07T03:21:05.843Z,68.07
2023-09-07T03:23:35.497Z,68.27
2023-09-07T03:26:02.863Z,68.44
2023-09-07T03:28:30.477Z,68.47
2023-09-07T03:30:58.221Z,68.79
2023-09-07T03:33:25.440Z,68.83
2023-09-07T03:35:53.744Z,69.16
2023-09-07T03:38:32.619Z,69.42
2023-09-07T03:41:00.128Z,69.29
2023-09-07T03:43:29.372Z,69.42
2023-09-07T03:45:59.224Z,69.62
2023-09-07T03:48:27.205Z,69.60
2023-09-07T03:50:54.318Z,69.78
2023-09-07T03:53:21.449Z,70.15
2023-09-07T03:55:51.225Z,70.53
2023-09-07T03:58:18.842Z,70.86
2023-09-07T04:00:48.958Z,71.10
2023-09-07T04:03:25.344Z,71.44
2023-09-07T04:05:56.418Z,71.92
2023-09-07T04:08:24.010Z,72.02
2023-09-07T04:10:51.233Z,72.24
2023-09-07T04:13:18.355Z,72.49
2023-09-07T04:15:46.100Z,72.58
2023-09-07T04:18:18.339Z,72.55
2023-09-07T04:20:45.924Z,72.76
2023-09-07T04:23:13.248Z,72.93
2023-09-07T04:25:48.225Z,73.10
2023-09-07T04:28:15.283Z,73.37
2023-09-07T04:30:42.789Z,73.50
2023-09-07T04:33:10.015Z,73.71
2023-09-07T04:35:37.456Z,73.65
2023-09-07T04:38:04.613Z,73.33
2023-09-07T04:40:32.177Z,72.74
2023-09-07T04:43:00.559Z,72.62
2023-09-07T04:45:27.698Z,72.16
2023-09-07T04:47:54.796Z,71.75
2023-09-07T04:50:21.636Z,71.57
2023-09-07T04:52:49.189Z,71.33
2023-09-07T04:55:16.425Z,70.86
2023-09-07T04:57:43.323Z,70.73
2023-09-07T05:00:10.920Z,70.49
2023-09-07T05:02:42.512Z,70.27
2023-09-07T05:05:09.796Z,70.02
2023-09-07T05:07:37.000Z,69.81
2023-09-07T05:10:04.507Z,69.71
2023-09-07T05:12:31.484Z,69.41
2023-09-07T05:14:58.463Z,69.21
2023-09-07T05:17:25.850Z,68.95
2023-09-07T05:19:52.728Z,68.77
2023-09-07T05:22:20.628Z,68.82
2023-09-07T05:24:48.079Z,68.54
2023-09-07T05:27:15.103Z,68.40
2023-09-07T05:29:42.173Z,68.01
2023-09-07T05:32:10.866Z,68.18
2023-09-07T05:35:39.154Z,68.28
2023-09-07T05:38:09.615Z,68.72
2023-09-07T05:40:42.712Z,68.55
2023-09-07T05:43:13.360Z,68.77
2023-09-07T05:46:00.663Z,68.58
2023-09-07T05:48:27.892Z,68.49
2023-09-07T05:50:57.480Z,68.45
2023-09-07T05:53:27.821Z,68.53
2023-09-07T05:56:05.944Z,68.56
2023-09-07T05:58:34.182Z,68.23
2023-09-07T06:01:24.521Z,68.26
2023-09-07T06:03:51.921Z,68.31
2023-09-07T06:06:25.436Z,68.09
2023-09-07T06:08:55.886Z,67.80
2023-09-07T06:11:30.936Z,68.05
2023-09-07T06:13:59.123Z,67.81
2023-09-07T06:16:37.570Z,67.19
2023-09-07T06:19:04.807Z,66.71
2023-09-07T06:21:35.213Z,66.86
2023-09-07T06:24:07.125Z,66.58
2023-09-07T06:26:34.322Z,66.39
2023-09-07T06:29:01.711Z,66.27
2023-09-07T06:31:31.919Z,65.78
2023-09-07T06:33:59.298Z,65.66
2023-09-07T06:36:47.068Z,64.72
2023-09-07T06:39:36.499Z,63.85
2023-09-07T06:42:11.575Z,63.04
2023-09-07T06:44:44.193Z,62.46
2023-09-07T06:47:20.829Z,61.81
2023-09-07T06:49:48.295Z,61.01
2023-09-07T06:52:16.551Z,60.20
2023-09-07T06:54:52.088Z,59.42
2023-09-07T06:57:39.828Z,59.00
2023-09-07T07:00:12.582Z,58.69
2023-09-07T07:02:42.577Z,58.21
2023-09-07T07:05:10.062Z,57.95
2023-09-07T07:07:46.391Z,57.17
2023-09-07T07:10:13.711Z,56.85
2023-09-07T07:12:46.026Z,56.63
2023-09-07T07:15:15.384Z,56.33
2023-09-07T07:18:16.030Z,55.59
2023-09-07T07:20:46.552Z,55.53
2023-09-07T07:23:13.790Z,54.89
2023-09-07T07:25:53.031Z,54.52
2023-09-07T07:28:21.212Z,54.14
2023-09-07T07:30:52.989Z,53.66
2023-09-07T07:33:21.267Z,53.12
2023-09-07T07:35:51.927Z,52.77
2023-09-07T07:38:20.884Z,51.99
2023-09-07T07:40:51.481Z,51.68
2023-09-07T07:43:19.552Z,51.44
2023-09-07T07:45:47.303Z,50.90
2023-09-07T07:48:19.398Z,51.00
2023-09-07T07:50:58.089Z,50.64
2023-09-07T07:53:25.616Z,50.93
2023-09-07T07:55:56.887Z,50.21
2023-09-07T07:58:24.784Z,49.28
2023-09-07T08:01:04.108Z,49.53
2023-09-07T08:03:33.902Z,49.37
2023-09-07T08:06:01.338Z,49.47
2023-09-07T08:08:29.405Z,50.23
2023-09-07T08:11:06.580Z,50.20
2023-09-07T08:13:34.888Z,50.22
2023-09-07T08:16:05.135Z,49.46
2023-09-07T08:18:36.581Z,49.15
2023-09-07T08:21:11.282Z,49.16
2023-09-07T08:23:43.769Z,49.00
2023-09-07T08:26:10.826Z,49.30
2023-09-07T08:28:41.042Z,49.56
2023-09-07T08:31:29.183Z,48.90
2023-09-07T08:33:59.566Z,48.66
2023-09-07T08:36:28.996Z,48.77
2023-09-07T08:39:08.568Z,48.09
2023-09-07T08:41:54.436Z,47.40
2023-09-07T08:44:34.476Z,47.14
2023-09-07T08:47:06.443Z,47.60
2023-09-07T08:49:52.294Z,47.87
2023-09-07T08:52:25.189Z,48.33
2023-09-07T08:54:54.048Z,48.36
2023-09-07T08:57:22.904Z,47.42
2023-09-07T08:59:53.764Z,46.74
2023-09-07T09:02:40.630Z,46.66
2023-09-07T09:05:11.530Z,47.38
2023-09-07T09:07:38.999Z,47.55
2023-09-07T09:10:10.291Z,47.16
2023-09-07T09:12:46.344Z,46.79
2023-09-07T09:15:16.175Z,46.36
2023-09-07T09:17:46.605Z,46.57
2023-09-07T09:20:38.274Z,46.30
2023-09-07T09:23:05.758Z,46.09
2023-09-07T09:25:33.877Z,46.05
2023-09-07T09:28:10.731Z,46.12
2023-09-07T09:30:38.679Z,45.76
2023-09-07T09:33:08.804Z,46.00
2023-09-07T09:35:36.293Z,45.97
2023-09-07T09:38:14.307Z,45.70
2023-09-07T09:40:42.248Z,45.26
2023-09-07T09:43:10.652Z,44.84
2023-09-07T09:45:38.949Z,44.91
2023-09-07T09:48:16.927Z,44.62
2023-09-07T09:50:49.354Z,44.19
2023-09-07T09:53:19.694Z,44.17
2023-09-07T09:56:01.076Z,44.28
2023-09-07T09:58:28.754Z,43.85
2023-09-07T10:00:59.308Z,44.11
2023-09-07T10:03:46.668Z,44.03
2023-09-07T10:06:34.424Z,43.51
2023-09-07T10:09:20.434Z,43.47
2023-09-07T10:12:09.508Z,43.15
2023-09-07T10:15:00.258Z,43.24
2023-09-07T10:17:27.411Z,43.05
2023-09-07T10:20:07.536Z,42.58
2023-09-07T10:22:37.488Z,42.41
2023-09-07T10:25:19.411Z,42.29
2023-09-07T10:27:49.165Z,41.96
2023-09-07T10:30:19.962Z,41.55
2023-09-07T10:32:47.336Z,41.68
2023-09-07T10:35:25.000Z,41.58
2023-09-07T10:37:53.813Z,41.49
2023-09-07T10:40:23.822Z,41.36
2023-09-07T10:43:11.644Z,41.00
2023-09-07T10:45:45.929Z,41.50
2023-09-07T10:48:14.646Z,41.32
2023-09-07T10:50:48.830Z,40.90
2023-09-07T10:53:30.464Z,40.74
2023-09-07T10:56:09.892Z,39.57
2023-09-07T10:58:42.879Z,40.22
2023-09-07T11:01:11.781Z,39.57
2023-09-07T11:03:40.523Z,40.24
2023-09-07T11:06:11.342Z,40.42
2023-09-07T11:08:39.160Z,40.57
2023-09-07T11:11:10.652Z,40.14
2023-09-07T11:13:37.879Z,39.62
2023-09-07T11:16:09.767Z,38.83
2023-09-07T11:18:37.404Z,38.67
2023-09-07T11:21:05.455Z,38.61
2023-09-07T11:23:38.735Z,38.51
2023-09-07T11:26:08.264Z,38.55
2023-09-07T11:28:37.046Z,38.53
2023-09-07T11:31:04.465Z,38.53
2023-09-07T11:33:34.246Z,38.53
2023-09-07T11:36:02.254Z,38.75
2023-09-07T11:38:35.596Z,39.22
2023-09-07T11:41:03.845Z,39.36
2023-09-07T11:43:31.048Z,39.53
2023-09-07T11:46:02.150Z,39.23
2023-09-07T11:48:35.819Z,39.18
2023-09-07T11:51:05.369Z,39.30
2023-09-07T11:53:32.808Z,40.17
2023-09-07T11:56:00.073Z,40.39
2023-09-07T11:58:30.801Z,40.20
2023-09-07T12:00:58.767Z,40.32
2023-09-07T12:03:26.721Z,40.24
2023-09-07T12:05:54.508Z,39.81
2023-09-07T12:08:24.205Z,39.31
2023-09-07T12:10:54.116Z,38.05
2023-09-07T12:13:21.899Z,38.02
2023-09-07T12:15:49.183Z,38.31
2023-09-07T12:18:16.883Z,38.74
2023-09-07T12:20:47.229Z,39.05
2023-09-07T12:23:14.729Z,39.32
2023-09-07T12:25:41.774Z,38.66
2023-09-07T12:28:14.999Z,37.60
2023-09-07T12:30:45.257Z,37.56
2023-09-07T12:33:15.594Z,37.12
2023-09-07T12:35:42.964Z,37.26
2023-09-07T12:38:11.857Z,37.51
2023-09-07T12:40:39.337Z,37.24
2023-09-07T12:43:07.477Z,36.67
2023-09-07T12:45:35.044Z,36.72
2023-09-07T12:48:02.763Z,37.30
2023-09-07T12:50:30.187Z,38.07
2023-09-07T12:52:57.208Z,38.67
2023-09-07T12:55:25.360Z,39.13
2023-09-07T12:57:52.413Z,39.33
2023-09-07T13:00:19.828Z,40.10
2023-09-07T13:02:47.785Z,38.55
2023-09-07T13:05:15.365Z,38.15
2023-09-07T13:07:44.761Z,38.40
2023-09-07T13:10:12.222Z,38.99
2023-09-07T13:12:39.817Z,38.79
2023-09-07T13:15:07.730Z,39.19
2023-09-07T13:17:35.321Z,38.81
2023-09-07T13:20:02.372Z,38.22
2023-09-07T13:22:29.807Z,37.79
2023-09-07T13:24:57.706Z,37.58
2023-09-07T13:27:26.565Z,37.73
2023-09-07T13:29:54.046Z,38.17
2023-09-07T13:32:21.701Z,38.45
2023-09-07T13:34:48.544Z,38.36
2023-09-07T13:37:16.182Z,38.05
2023-09-07T13:39:43.600Z,38.74
2023-09-07T13:42:11.264Z,39.08
2023-09-07T13:44:38.963Z,38.45
2023-09-07T13:47:05.960Z,38.29
2023-09-07T13:49:32.934Z,37.89
2023-09-07T13:52:00.191Z,37.90
2023-09-07T13:54:30.928Z,38.20
2023-09-07T13:56:58.620Z,38.12
2023-09-07T13:59:29.506Z,38.99
2023-09-07T14:01:56.716Z,38.19
2023-09-07T14:04:23.697Z,38.04
2023-09-07T14:06:51.561Z,38.33
2023-09-07T14:09:19.381Z,38.26
2023-09-07T14:11:49.931Z,38.14
2023-09-07T14:14:21.634Z,37.67
2023-09-07T14:16:55.966Z,37.84
2023-09-07T14:19:23.948Z,38.09
2023-09-07T14:21:51.835Z,37.37
2023-09-07T14:24:18.845Z,37.13
2023-09-07T14:26:45.919Z,37.11
2023-09-07T14:29:13.556Z,37.17
2023-09-07T14:31:42.788Z,37.63
2023-09-07T14:34:11.754Z,38.13
2023-09-07T14:36:39.597Z,38.40
2023-09-07T14:39:09.061Z,38.19
2023-09-07T14:41:36.908Z,38.72
2023-09-07T14:44:06.224Z,38.80
2023-09-07T14:46:33.672Z,38.69
2023-09-07T14:49:01.979Z,39.06
2023-09-07T14:51:29.645Z,38.80
2023-09-07T14:53:58.781Z,38.82
2023-09-07T14:56:27.186Z,39.24
2023-09-07T14:58:58.167Z,39.02
2023-09-07T15:01:25.187Z,38.91
2023-09-07T15:03:55.622Z,38.71
2023-09-07T15:06:23.217Z,38.84
2023-09-07T15:08:51.464Z,39.31
2023-09-07T15:11:20.429Z,39.35
2023-09-07T15:13:52.186Z,39.35
2023-09-07T15:16:20.446Z,39.84
2023-09-07T15:18:48.065Z,40.21
2023-09-07T15:21:15.510Z,40.12
2023-09-07T15:23:43.807Z,40.45
2023-09-07T15:26:11.463Z,40.15
2023-09-07T15:28:40.606Z,40.08
2023-09-07T15:31:21.736Z,39.87
2023-09-07T15:33:51.986Z,40.38
2023-09-07T15:36:19.095Z,40.50
2023-09-07T15:38:46.899Z,40.49
2023-09-07T15:41:13.866Z,40.15
2023-09-07T15:43:41.342Z,40.34
2023-09-07T15:46:09.096Z,40.64
2023-09-07T15:48:36.548Z,40.81
2023-09-07T15:51:14.057Z,40.91
2023-09-07T15:54:02.633Z,41.09
2023-09-07T15:56:30.165Z,41.22
2023-09-07T15:59:00.148Z,41.35
2023-09-07T16:01:27.384Z,41.49
2023-09-07T16:03:54.963Z,41.68
2023-09-07T16:06:21.973Z,41.88
2023-09-07T16:08:48.990Z,41.94
2023-09-07T16:11:16.171Z,42.20
2023-09-07T16:13:46.500Z,42.28
2023-09-07T16:16:13.597Z,42.44
2023-09-07T16:18:41.301Z,42.82
2023-09-07T16:21:15.428Z,43.00
2023-09-07T16:23:50.958Z,43.20
2023-09-07T16:26:20.012Z,43.28
2023-09-07T16:28:55.244Z,43.41
2023-09-07T16:31:22.804Z,43.68
2023-09-07T16:33:53.925Z,43.72
2023-09-07T16:36:22.089Z,43.89
2023-09-07T16:38:49.330Z,43.81
2023-09-07T16:41:16.917Z,44.10
2023-09-07T16:43:47.604Z,44.08
2023-09-07T16:46:14.974Z,44.36
2023-09-07T16:48:42.252Z,44.44
2023-09-07T16:51:17.213Z,44.55
2023-09-07T16:53:45.552Z,44.70
2023-09-07T16:56:12.712Z,44.84
2023-09-07T16:59:12.556Z,44.90
2023-09-07T17:01:32.345Z,45.23
2023-09-07T17:03:59.859Z,45.51
2023-09-07T17:06:26.824Z,45.72
2023-09-07T17:08:57.293Z,45.93
2023-09-07T17:11:34.171Z,46.49
2023-09-07T17:14:06.694Z,46.72
2023-09-07T17:16:34.142Z,47.36
2023-09-07T17:19:03.078Z,48.10
2023-09-07T17:21:29.911Z,48.87
2023-09-07T17:23:56.819Z,49.25
2023-09-07T17:26:23.958Z,49.77
2023-09-07T17:29:23.576Z,50.04
2023-09-07T17:31:51.222Z,51.05
2023-09-07T17:34:18.642Z,51.80
2023-09-07T17:36:45.883Z,52.37
2023-09-07T17:39:12.973Z,53.02
2023-09-07T17:41:44.226Z,53.52
2023-09-07T17:44:13.970Z,53.60
2023-09-07T17:46:41.350Z,53.80
2023-09-07T17:49:09.423Z,54.53
2023-09-07T17:51:36.654Z,54.32
2023-09-07T17:54:04.388Z,54.65
2023-09-07T17:56:34.567Z,55.04
2023-09-07T17:59:04.723Z,55.84
2023-09-07T18:01:32.061Z,55.87
2023-09-07T18:04:04.750Z,56.10
2023-09-07T18:06:34.587Z,56.25
2023-09-07T18:09:02.089Z,56.22
2023-09-07T18:11:32.042Z,56.47
2023-09-07T18:14:12.466Z,55.98
2023-09-07T18:16:45.327Z,55.54
2023-09-07T18:19:41.664Z,55.12
2023-09-07T18:22:17.765Z,54.72
2023-09-07T18:24:44.725Z,54.63
2023-09-07T18:27:17.511Z,54.53
2023-09-07T18:29:44.609Z,54.47
2023-09-07T18:32:36.221Z,54.47
2023-09-07T18:35:07.057Z,54.70
2023-09-07T18:37:39.043Z,54.92
2023-09-07T18:40:22.355Z,55.33
2023-09-07T18:42:52.135Z,55.32
2023-09-07T18:46:11.966Z,55.46
2023-09-07T18:48:50.826Z,55.46
2023-09-07T18:51:18.657Z,55.46
2023-09-07T18:53:45.610Z,55.47
2023-09-07T18:56:18.421Z,55.45
2023-09-07T18:58:45.620Z,55.35
2023-09-07T19:01:21.006Z,55.31
2023-09-07T19:03:52.955Z,55.42
2023-09-07T19:06:31.858Z,55.59
2023-09-07T19:09:04.553Z,55.41
2023-09-07T19:11:31.893Z,55.58
2023-09-07T19:14:05.939Z,55.43
2023-09-07T19:16:34.001Z,55.33
2023-09-07T19:19:01.818Z,55.47
2023-09-07T19:21:33.395Z,55.41
2023-09-07T19:24:03.321Z,55.44
2023-09-07T19:26:33.987Z,55.26
2023-09-07T19:29:02.122Z,55.19
2023-09-07T19:31:33.003Z,55.02
2023-09-07T19:34:07.697Z,54.96
2023-09-07T19:36:36.795Z,55.06
2023-09-07T19:39:04.428Z,54.99
2023-09-07T19:41:34.850Z,55.05
2023-09-07T19:44:02.510Z,54.94
2023-09-07T19:46:30.167Z,55.05
2023-09-07T19:48:57.543Z,55.04
2023-09-07T19:51:25.604Z,55.16
2023-09-07T19:53:56.479Z,55.11
2023-09-07T19:56:28.115Z,55.19
2023-09-07T19:58:57.940Z,55.30
2023-09-07T20:02:08.419Z,55.49
2023-09-07T20:04:57.946Z,55.63
2023-09-07T20:07:41.201Z,55.87
2023-09-07T20:10:09.015Z,56.21
2023-09-07T20:12:39.068Z,56.42
2023-09-07T20:15:07.084Z,56.84
2023-09-07T20:17:39.054Z,57.04
2023-09-07T20:20:10.153Z,57.50
2023-09-07T20:22:40.704Z,57.99
2023-09-07T20:25:21.425Z,58.35
2023-09-07T20:27:49.454Z,58.78
2023-09-07T20:30:27.259Z,58.96
2023-09-07T20:33:01.939Z,59.51
2023-09-07T20:35:43.524Z,59.73
2023-09-07T20:38:24.729Z,60.18
2023-09-07T20:40:51.680Z,60.41
2023-09-07T20:43:39.389Z,60.78
2023-09-07T20:46:07.648Z,60.96
2023-09-07T20:48:51.737Z,60.89
2023-09-07T20:51:22.507Z,61.08
2023-09-07T20:53:52.846Z,61.30
2023-09-07T20:56:20.024Z,61.34
2023-09-07T20:58:47.067Z,61.65
2023-09-07T21:01:21.488Z,61.51
2023-09-07T21:03:51.134Z,61.58
2023-09-07T21:06:18.947Z,61.47
2023-09-07T21:08:46.911Z,61.45
2023-09-07T21:11:26.627Z,61.28
2023-09-07T21:14:14.502Z,61.22
2023-09-07T21:16:42.586Z,61.08
2023-09-07T21:19:17.504Z,61.09
2023-09-07T21:21:58.543Z,61.23
2023-09-07T21:24:38.839Z,61.12
2023-09-07T21:27:10.687Z,61.14
2023-09-07T21:29:41.377Z,61.06
2023-09-07T21:32:21.604Z,61.02
2023-09-07T21:34:55.423Z,60.76
2023-09-07T21:37:22.600Z,60.97
2023-09-07T21:40:16.011Z,61.06
2023-09-07T21:43:11.935Z,61.05
2023-09-07T21:45:41.903Z,60.89
2023-09-07T21:48:17.836Z,61.01
2023-09-07T21:51:05.388Z,60.97
2023-09-07T21:53:39.614Z,60.96
2023-09-07T21:56:09.981Z,61.21
2023-09-07T21:58:45.135Z,61.22
2023-09-07T22:01:17.588Z,60.91
2023-09-07T22:04:05.092Z,60.99
2023-09-07T22:06:42.823Z,60.98
2023-09-07T22:09:26.818Z,61.55
2023-09-07T22:12:00.623Z,62.01
2023-09-07T22:14:50.408Z,62.25
2023-09-07T22:17:17.650Z,62.52
2023-09-07T22:19:49.643Z,62.68
2023-09-07T22:22:27.204Z,63.07
2023-09-07T22:25:17.163Z,63.40
2023-09-07T22:27:47.578Z,63.75
2023-09-07T22:30:14.755Z,64.01
2023-09-07T22:33:36.076Z,63.89
2023-09-07T22:36:04.324Z,63.82
2023-09-07T22:38:54.073Z,64.07
2023-09-07T22:42:11.625Z,64.07
2023-09-07T22:44:58.905Z,64.12
2023-09-07T22:47:26.227Z,64.09
2023-09-07T22:50:21.718Z,64.29
2023-09-07T22:52:51.931Z,64.11
2023-09-07T22:55:42.456Z,63.89
2023-09-07T22:58:30.027Z,64.03
2023-09-07T23:01:06.610Z,63.61
2023-09-07T23:03:33.943Z,63.30
2023-09-07T23:06:05.173Z,63.21
2023-09-07T23:08:33.347Z,63.39
2023-09-07T23:11:04.800Z,63.64
2023-09-07T23:13:35.429Z,63.79
2023-09-07T23:16:03.330Z,63.66
2023-09-07T23:18:42.582Z,63.80
2023-09-07T23:21:12.774Z,63.77
2023-09-07T23:23:40.054Z,63.36
2023-09-07T23:26:07.089Z,63.61
2023-09-07T23:28:35.235Z,63.57
2023-09-07T23:31:05.230Z,63.86
2023-09-07T23:33:32.500Z,64.01
2023-09-07T23:35:59.668Z,64.07
2023-09-07T23:38:32.879Z,64.27
2023-09-07T23:41:07.853Z,64.38
2023-09-07T23:43:59.139Z,64.68
2023-09-07T23:46:38.742Z,64.83
2023-09-07T23:49:06.044Z,64.99
2023-09-07T23:51:33.553Z,64.98
2023-09-07T23:54:21.086Z,65.42
2023-09-07T23:56:51.046Z,65.50
2023-09-07T23:59:18.251Z,65.83
